sensor_id;sensor_type;location;lat;lon;timestamp;P1;durP1;ratioP1;P2;durP2;ratioP2
48211;SDS011;34000;48.772;9.162;2022-10-16T00:00:53;2.28;;;1.40;;
48211;SDS011;34000;48.772;9.162;2022-10-16T00:03:19;4.85;;;1.02;;
48211;SDS011;34000;48.772;9.162;2022-10-16T00:05:44;2.20;;;1.00;;
48211;SDS011;34000;48.772;9.162;2022-10-16T00:08:10;1.90;;;1.20;;
48211;SDS011;34000;48.772;9.162;2022-10-16T00:10:37;1.52;;;1.00;;
48211;SDS011;34000;48.772;9.162;2022-10-16T00:13:03;1.15;;;0.95;;
48211;SDS011;34000;48.772;9.162;2022-10-16T00:15:30;1.80;;;1.10;;
48211;SDS011;34000;48.772;9.162;2022-10-16T00:17:58;0.80;;;0.75;;
48211;SDS011;34000;48.772;9.162;2022-10-16T00:20:23;1.45;;;1.00;;
48211;SDS011;34000;48.772;9.162;2022-10-16T00:22:49;2.03;;;1.27;;
48211;SDS011;34000;48.772;9.162;2022-10-16T00:25:15;1.33;;;1.10;;
48211;SDS011;34000;48.772;9.162;2022-10-16T00:27:40;7.82;;;1.75;;
48211;SDS011;34000;48.772;9.162;2022-10-16T00:30:06;1.83;;;1.20;;
48211;SDS011;34000;48.772;9.162;2022-10-16T00:32:33;2.95;;;1.23;;
48211;SDS011;34000;48.772;9.162;2022-10-16T00:34:58;2.25;;;1.00;;
48211;SDS011;34000;48.772;9.162;2022-10-16T00:37:24;4.07;;;1.30;;
48211;SDS011;34000;48.772;9.162;2022-10-16T00:39:50;1.40;;;1.17;;
48211;SDS011;34000;48.772;9.162;2022-10-16T00:42:16;1.17;;;0.93;;
48211;SDS011;34000;48.772;9.162;2022-10-16T00:45:04;1.58;;;1.08;;
48211;SDS011;34000;48.772;9.162;2022-10-16T00:47:34;1.92;;;1.00;;
48211;SDS011;34000;48.772;9.162;2022-10-16T00:50:12;4.40;;;0.98;;
48211;SDS011;34000;48.772;9.162;2022-10-16T00:52:44;2.28;;;1.17;;
48211;SDS011;34000;48.772;9.162;2022-10-16T00:55:13;1.95;;;0.88;;
48211;SDS011;34000;48.772;9.162;2022-10-16T00:57:39;2.45;;;1.20;;
48211;SDS011;34000;48.772;9.162;2022-10-16T01:00:06;6.45;;;1.20;;
48211;SDS011;34000;48.772;9.162;2022-10-16T01:02:34;1.95;;;1.10;;
48211;SDS011;34000;48.772;9.162;2022-10-16T01:04:59;1.30;;;1.10;;
48211;SDS011;34000;48.772;9.162;2022-10-16T01:10:08;1.50;;;1.10;;
48211;SDS011;34000;48.772;9.162;2022-10-16T01:12:45;1.20;;;1.05;;
48211;SDS011;34000;48.772;9.162;2022-10-16T01:20:59;1.20;;;1.10;;
48211;SDS011;34000;48.772;9.162;2022-10-16T01:29:18;1.80;;;0.98;;
48211;SDS011;34000;48.772;9.162;2022-10-16T01:31:53;1.58;;;1.08;;
48211;SDS011;34000;48.772;9.162;2022-10-16T01:34:33;3.08;;;1.17;;
48211;SDS011;34000;48.772;9.162;2022-10-16T01:37:07;1.00;;;0.90;;
48211;SDS011;34000;48.772;9.162;2022-10-16T01:39:38;1.08;;;0.93;;
48211;SDS011;34000;48.772;9.162;2022-10-16T01:42:11;1.20;;;0.93;;
48211;SDS011;34000;48.772;9.162;2022-10-16T01:44:39;3.33;;;0.90;;
48211;SDS011;34000;48.772;9.162;2022-10-16T01:47:08;1.10;;;1.00;;
48211;SDS011;34000;48.772;9.162;2022-10-16T01:49:36;2.88;;;1.00;;
48211;SDS011;34000;48.772;9.162;2022-10-16T01:52:05;0.98;;;0.80;;
48211;SDS011;34000;48.772;9.162;2022-10-16T01:54:36;1.35;;;0.77;;
48211;SDS011;34000;48.772;9.162;2022-10-16T01:57:05;0.82;;;0.80;;
48211;SDS011;34000;48.772;9.162;2022-10-16T01:59:33;1.00;;;0.90;;
48211;SDS011;34000;48.772;9.162;2022-10-16T02:02:04;3.13;;;1.20;;
48211;SDS011;34000;48.772;9.162;2022-10-16T02:04:34;1.25;;;0.73;;
48211;SDS011;34000;48.772;9.162;2022-10-16T02:07:04;0.80;;;0.70;;
48211;SDS011;34000;48.772;9.162;2022-10-16T02:09:30;2.08;;;1.25;;
48211;SDS011;34000;48.772;9.162;2022-10-16T02:11:59;2.28;;;0.90;;
48211;SDS011;34000;48.772;9.162;2022-10-16T02:14:28;1.40;;;0.90;;
48211;SDS011;34000;48.772;9.162;2022-10-16T02:16:55;1.45;;;0.88;;
48211;SDS011;34000;48.772;9.162;2022-10-16T02:19:20;1.50;;;0.75;;
48211;SDS011;34000;48.772;9.162;2022-10-16T02:22:05;1.08;;;0.80;;
48211;SDS011;34000;48.772;9.162;2022-10-16T02:24:36;1.13;;;0.85;;
48211;SDS011;34000;48.772;9.162;2022-10-16T02:30:03;2.03;;;1.08;;
48211;SDS011;34000;48.772;9.162;2022-10-16T02:32:44;0.70;;;0.70;;
48211;SDS011;34000;48.772;9.162;2022-10-16T02:35:12;1.08;;;0.80;;
48211;SDS011;34000;48.772;9.162;2022-10-16T02:37:40;1.75;;;0.90;;
48211;SDS011;34000;48.772;9.162;2022-10-16T02:40:06;2.85;;;0.90;;
48211;SDS011;34000;48.772;9.162;2022-10-16T02:42:34;1.85;;;0.95;;
48211;SDS011;34000;48.772;9.162;2022-10-16T02:45:00;0.70;;;0.70;;
48211;SDS011;34000;48.772;9.162;2022-10-16T02:47:26;1.00;;;0.60;;
48211;SDS011;34000;48.772;9.162;2022-10-16T02:49:52;0.95;;;0.90;;
48211;SDS011;34000;48.772;9.162;2022-10-16T02:52:17;1.55;;;0.65;;
48211;SDS011;34000;48.772;9.162;2022-10-16T02:54:43;1.88;;;0.90;;
48211;SDS011;34000;48.772;9.162;2022-10-16T02:57:09;1.13;;;1.02;;
48211;SDS011;34000;48.772;9.162;2022-10-16T02:59:34;2.13;;;0.88;;
48211;SDS011;34000;48.772;9.162;2022-10-16T03:02:00;1.67;;;0.80;;
48211;SDS011;34000;48.772;9.162;2022-10-16T03:04:25;2.15;;;1.00;;
48211;SDS011;34000;48.772;9.162;2022-10-16T03:06:51;0.93;;;0.80;;
48211;SDS011;34000;48.772;9.162;2022-10-16T03:09:16;2.97;;;1.10;;
48211;SDS011;34000;48.772;9.162;2022-10-16T03:11:42;3.00;;;0.90;;
48211;SDS011;34000;48.772;9.162;2022-10-16T03:14:08;1.05;;;0.93;;
48211;SDS011;34000;48.772;9.162;2022-10-16T03:16:33;0.98;;;0.82;;
48211;SDS011;34000;48.772;9.162;2022-10-16T03:18:59;5.53;;;0.95;;
48211;SDS011;34000;48.772;9.162;2022-10-16T03:21:24;0.82;;;0.70;;
48211;SDS011;34000;48.772;9.162;2022-10-16T03:23:50;2.58;;;1.23;;
48211;SDS011;34000;48.772;9.162;2022-10-16T03:26:15;2.45;;;0.80;;
48211;SDS011;34000;48.772;9.162;2022-10-16T03:28:41;6.03;;;1.00;;
48211;SDS011;34000;48.772;9.162;2022-10-16T03:31:06;1.60;;;0.90;;
48211;SDS011;34000;48.772;9.162;2022-10-16T03:33:33;1.23;;;0.73;;
48211;SDS011;34000;48.772;9.162;2022-10-16T03:35:58;1.10;;;0.82;;
48211;SDS011;34000;48.772;9.162;2022-10-16T03:38:24;1.50;;;0.75;;
48211;SDS011;34000;48.772;9.162;2022-10-16T03:40:49;1.17;;;0.80;;
48211;SDS011;34000;48.772;9.162;2022-10-16T03:43:15;4.20;;;0.90;;
48211;SDS011;34000;48.772;9.162;2022-10-16T03:45:41;2.42;;;0.90;;
48211;SDS011;34000;48.772;9.162;2022-10-16T03:48:06;2.10;;;0.90;;
48211;SDS011;34000;48.772;9.162;2022-10-16T03:50:32;3.50;;;0.80;;
48211;SDS011;34000;48.772;9.162;2022-10-16T03:52:58;1.08;;;0.80;;
48211;SDS011;34000;48.772;9.162;2022-10-16T03:55:23;2.50;;;0.80;;
48211;SDS011;34000;48.772;9.162;2022-10-16T03:57:49;4.90;;;1.00;;
48211;SDS011;34000;48.772;9.162;2022-10-16T04:00:14;1.00;;;0.70;;
48211;SDS011;34000;48.772;9.162;2022-10-16T04:02:40;2.00;;;1.25;;
48211;SDS011;34000;48.772;9.162;2022-10-16T04:05:06;2.47;;;0.80;;
48211;SDS011;34000;48.772;9.162;2022-10-16T04:07:32;1.23;;;1.00;;
48211;SDS011;34000;48.772;9.162;2022-10-16T04:09:57;1.65;;;0.80;;
48211;SDS011;34000;48.772;9.162;2022-10-16T04:12:24;1.17;;;0.85;;
48211;SDS011;34000;48.772;9.162;2022-10-16T04:14:50;2.80;;;1.08;;
48211;SDS011;34000;48.772;9.162;2022-10-16T04:17:16;1.23;;;0.77;;
48211;SDS011;34000;48.772;9.162;2022-10-16T04:19:41;0.80;;;0.80;;
48211;SDS011;34000;48.772;9.162;2022-10-16T04:22:07;1.13;;;1.02;;
48211;SDS011;34000;48.772;9.162;2022-10-16T04:24:33;1.23;;;1.00;;
48211;SDS011;34000;48.772;9.162;2022-10-16T04:26:58;1.40;;;0.90;;
48211;SDS011;34000;48.772;9.162;2022-10-16T04:29:24;1.40;;;0.95;;
48211;SDS011;34000;48.772;9.162;2022-10-16T04:31:50;3.05;;;1.00;;
48211;SDS011;34000;48.772;9.162;2022-10-16T04:34:15;1.20;;;0.98;;
48211;SDS011;34000;48.772;9.162;2022-10-16T04:36:41;2.63;;;0.80;;
48211;SDS011;34000;48.772;9.162;2022-10-16T04:39:06;1.40;;;0.90;;
48211;SDS011;34000;48.772;9.162;2022-10-16T04:41:32;1.00;;;0.80;;
48211;SDS011;34000;48.772;9.162;2022-10-16T04:43:58;1.65;;;0.95;;
48211;SDS011;34000;48.772;9.162;2022-10-16T04:46:23;1.40;;;0.65;;
48211;SDS011;34000;48.772;9.162;2022-10-16T04:48:49;0.93;;;0.82;;
48211;SDS011;34000;48.772;9.162;2022-10-16T04:51:14;0.80;;;0.80;;
48211;SDS011;34000;48.772;9.162;2022-10-16T04:53:40;1.08;;;0.80;;
48211;SDS011;34000;48.772;9.162;2022-10-16T04:56:06;2.92;;;1.05;;
48211;SDS011;34000;48.772;9.162;2022-10-16T04:58:31;4.60;;;1.00;;
48211;SDS011;34000;48.772;9.162;2022-10-16T05:00:57;3.72;;;1.00;;
48211;SDS011;34000;48.772;9.162;2022-10-16T05:03:23;1.67;;;1.00;;
48211;SDS011;34000;48.772;9.162;2022-10-16T05:05:49;0.98;;;0.85;;
48211;SDS011;34000;48.772;9.162;2022-10-16T05:08:15;1.67;;;0.90;;
48211;SDS011;34000;48.772;9.162;2022-10-16T05:10:41;3.35;;;0.93;;
48211;SDS011;34000;48.772;9.162;2022-10-16T05:13:07;2.63;;;1.15;;
48211;SDS011;34000;48.772;9.162;2022-10-16T05:15:33;1.77;;;1.00;;
48211;SDS011;34000;48.772;9.162;2022-10-16T05:17:59;2.60;;;0.90;;
48211;SDS011;34000;48.772;9.162;2022-10-16T05:20:24;1.10;;;0.90;;
48211;SDS011;34000;48.772;9.162;2022-10-16T05:22:50;1.73;;;0.70;;
48211;SDS011;34000;48.772;9.162;2022-10-16T05:25:16;3.92;;;1.10;;
48211;SDS011;34000;48.772;9.162;2022-10-16T05:27:41;1.40;;;1.30;;
48211;SDS011;34000;48.772;9.162;2022-10-16T05:30:07;1.02;;;0.80;;
48211;SDS011;34000;48.772;9.162;2022-10-16T05:32:33;1.30;;;1.15;;
48211;SDS011;34000;48.772;9.162;2022-10-16T05:34:58;1.00;;;0.90;;
48211;SDS011;34000;48.772;9.162;2022-10-16T05:37:25;1.33;;;1.08;;
48211;SDS011;34000;48.772;9.162;2022-10-16T05:39:52;2.33;;;0.95;;
48211;SDS011;34000;48.772;9.162;2022-10-16T05:42:18;1.98;;;0.98;;
48211;SDS011;34000;48.772;9.162;2022-10-16T05:44:43;2.72;;;0.93;;
48211;SDS011;34000;48.772;9.162;2022-10-16T05:47:09;1.30;;;0.90;;
48211;SDS011;34000;48.772;9.162;2022-10-16T05:49:37;1.23;;;0.90;;
48211;SDS011;34000;48.772;9.162;2022-10-16T05:52:03;2.80;;;1.10;;
48211;SDS011;34000;48.772;9.162;2022-10-16T05:54:29;3.00;;;0.95;;
48211;SDS011;34000;48.772;9.162;2022-10-16T05:56:54;1.40;;;0.90;;
48211;SDS011;34000;48.772;9.162;2022-10-16T05:59:20;1.33;;;1.00;;
48211;SDS011;34000;48.772;9.162;2022-10-16T06:01:45;1.02;;;0.93;;
48211;SDS011;34000;48.772;9.162;2022-10-16T06:04:11;0.90;;;0.90;;
48211;SDS011;34000;48.772;9.162;2022-10-16T06:06:36;2.15;;;1.00;;
48211;SDS011;34000;48.772;9.162;2022-10-16T06:09:02;2.42;;;1.48;;
48211;SDS011;34000;48.772;9.162;2022-10-16T06:11:30;2.85;;;1.00;;
48211;SDS011;34000;48.772;9.162;2022-10-16T06:13:57;3.38;;;1.45;;
48211;SDS011;34000;48.772;9.162;2022-10-16T06:16:26;2.22;;;1.02;;
48211;SDS011;34000;48.772;9.162;2022-10-16T06:18:52;2.55;;;0.90;;
48211;SDS011;34000;48.772;9.162;2022-10-16T06:21:21;3.25;;;1.10;;
48211;SDS011;34000;48.772;9.162;2022-10-16T06:23:49;1.20;;;0.93;;
48211;SDS011;34000;48.772;9.162;2022-10-16T06:26:16;3.28;;;1.05;;
48211;SDS011;34000;48.772;9.162;2022-10-16T06:28:44;7.13;;;1.20;;
48211;SDS011;34000;48.772;9.162;2022-10-16T06:31:10;1.77;;;1.00;;
48211;SDS011;34000;48.772;9.162;2022-10-16T06:33:36;1.10;;;0.90;;
48211;SDS011;34000;48.772;9.162;2022-10-16T06:36:13;1.67;;;1.10;;
48211;SDS011;34000;48.772;9.162;2022-10-16T06:38:40;1.33;;;0.95;;
48211;SDS011;34000;48.772;9.162;2022-10-16T06:41:06;1.65;;;1.08;;
48211;SDS011;34000;48.772;9.162;2022-10-16T06:43:34;1.40;;;1.10;;
48211;SDS011;34000;48.772;9.162;2022-10-16T06:46:00;2.38;;;1.13;;
48211;SDS011;34000;48.772;9.162;2022-10-16T06:48:27;0.80;;;0.80;;
48211;SDS011;34000;48.772;9.162;2022-10-16T06:51:01;2.22;;;0.90;;
48211;SDS011;34000;48.772;9.162;2022-10-16T06:53:39;2.13;;;0.98;;
48211;SDS011;34000;48.772;9.162;2022-10-16T06:56:10;1.77;;;0.90;;
48211;SDS011;34000;48.772;9.162;2022-10-16T06:58:46;1.67;;;0.80;;
48211;SDS011;34000;48.772;9.162;2022-10-16T07:01:13;1.20;;;1.10;;
48211;SDS011;34000;48.772;9.162;2022-10-16T07:03:40;6.28;;;0.80;;
48211;SDS011;34000;48.772;9.162;2022-10-16T07:06:08;0.95;;;0.88;;
48211;SDS011;34000;48.772;9.162;2022-10-16T07:08:36;3.25;;;0.90;;
48211;SDS011;34000;48.772;9.162;2022-10-16T07:11:05;0.88;;;0.88;;
48211;SDS011;34000;48.772;9.162;2022-10-16T07:13:36;0.95;;;0.88;;
48211;SDS011;34000;48.772;9.162;2022-10-16T07:16:16;1.40;;;1.15;;
48211;SDS011;34000;48.772;9.162;2022-10-16T07:18:44;2.58;;;1.10;;
48211;SDS011;34000;48.772;9.162;2022-10-16T07:21:13;3.42;;;1.00;;
48211;SDS011;34000;48.772;9.162;2022-10-16T07:23:44;1.17;;;1.08;;
48211;SDS011;34000;48.772;9.162;2022-10-16T07:26:10;2.58;;;1.05;;
48211;SDS011;34000;48.772;9.162;2022-10-16T07:28:36;4.95;;;1.00;;
48211;SDS011;34000;48.772;9.162;2022-10-16T07:31:03;1.42;;;1.00;;
48211;SDS011;34000;48.772;9.162;2022-10-16T07:33:30;1.40;;;0.90;;
48211;SDS011;34000;48.772;9.162;2022-10-16T07:35:56;1.27;;;0.98;;
48211;SDS011;34000;48.772;9.162;2022-10-16T07:38:22;0.90;;;0.82;;
48211;SDS011;34000;48.772;9.162;2022-10-16T07:40:55;2.35;;;1.02;;
48211;SDS011;34000;48.772;9.162;2022-10-16T07:43:40;5.45;;;1.02;;
48211;SDS011;34000;48.772;9.162;2022-10-16T07:46:10;0.75;;;0.75;;
48211;SDS011;34000;48.772;9.162;2022-10-16T07:48:35;1.40;;;0.95;;
48211;SDS011;34000;48.772;9.162;2022-10-16T07:51:02;1.80;;;1.10;;
48211;SDS011;34000;48.772;9.162;2022-10-16T07:53:29;3.92;;;0.80;;
48211;SDS011;34000;48.772;9.162;2022-10-16T07:55:59;2.70;;;1.40;;
48211;SDS011;34000;48.772;9.162;2022-10-16T07:58:34;1.27;;;1.08;;
48211;SDS011;34000;48.772;9.162;2022-10-16T08:01:12;1.10;;;1.00;;
48211;SDS011;34000;48.772;9.162;2022-10-16T08:03:48;1.83;;;1.15;;
48211;SDS011;34000;48.772;9.162;2022-10-16T08:06:16;3.75;;;1.20;;
48211;SDS011;34000;48.772;9.162;2022-10-16T08:08:43;3.97;;;0.93;;
48211;SDS011;34000;48.772;9.162;2022-10-16T08:11:09;1.27;;;0.80;;
48211;SDS011;34000;48.772;9.162;2022-10-16T08:13:35;2.33;;;0.88;;
48211;SDS011;34000;48.772;9.162;2022-10-16T08:16:01;1.10;;;0.80;;
48211;SDS011;34000;48.772;9.162;2022-10-16T08:18:28;2.60;;;0.93;;
48211;SDS011;34000;48.772;9.162;2022-10-16T08:20:54;3.95;;;0.95;;
48211;SDS011;34000;48.772;9.162;2022-10-16T08:23:25;1.50;;;0.90;;
48211;SDS011;34000;48.772;9.162;2022-10-16T08:25:54;4.85;;;1.00;;
48211;SDS011;34000;48.772;9.162;2022-10-16T08:28:21;2.15;;;0.90;;
48211;SDS011;34000;48.772;9.162;2022-10-16T08:30:48;3.83;;;0.95;;
48211;SDS011;34000;48.772;9.162;2022-10-16T08:33:14;1.08;;;0.98;;
48211;SDS011;34000;48.772;9.162;2022-10-16T08:35:40;5.85;;;0.80;;
48211;SDS011;34000;48.772;9.162;2022-10-16T08:38:06;0.98;;;0.80;;
48211;SDS011;34000;48.772;9.162;2022-10-16T08:40:32;1.33;;;0.90;;
48211;SDS011;34000;48.772;9.162;2022-10-16T08:43:07;0.90;;;0.90;;
48211;SDS011;34000;48.772;9.162;2022-10-16T08:48:48;1.23;;;0.90;;
48211;SDS011;34000;48.772;9.162;2022-10-16T08:51:26;3.25;;;1.00;;
48211;SDS011;34000;48.772;9.162;2022-10-16T08:53:58;1.48;;;0.95;;
48211;SDS011;34000;48.772;9.162;2022-10-16T08:56:27;2.75;;;1.13;;
48211;SDS011;34000;48.772;9.162;2022-10-16T08:58:53;1.00;;;0.80;;
48211;SDS011;34000;48.772;9.162;2022-10-16T09:01:20;5.53;;;1.20;;
48211;SDS011;34000;48.772;9.162;2022-10-16T09:11:59;4.50;;;1.00;;
48211;SDS011;34000;48.772;9.162;2022-10-16T09:19:46;2.33;;;1.42;;
48211;SDS011;34000;48.772;9.162;2022-10-16T09:22:26;4.63;;;0.90;;
48211;SDS011;34000;48.772;9.162;2022-10-16T09:24:54;3.17;;;1.40;;
48211;SDS011;34000;48.772;9.162;2022-10-16T09:27:23;1.55;;;0.90;;
48211;SDS011;34000;48.772;9.162;2022-10-16T09:29:48;5.70;;;0.88;;
48211;SDS011;34000;48.772;9.162;2022-10-16T09:32:15;1.60;;;0.80;;
48211;SDS011;34000;48.772;9.162;2022-10-16T09:34:46;4.22;;;0.95;;
48211;SDS011;34000;48.772;9.162;2022-10-16T09:37:18;0.95;;;0.88;;
48211;SDS011;34000;48.772;9.162;2022-10-16T09:39:49;0.68;;;0.68;;
48211;SDS011;34000;48.772;9.162;2022-10-16T09:44:52;1.40;;;1.00;;
48211;SDS011;34000;48.772;9.162;2022-10-16T09:47:25;0.70;;;0.70;;
48211;SDS011;34000;48.772;9.162;2022-10-16T09:49:54;4.07;;;0.90;;
48211;SDS011;34000;48.772;9.162;2022-10-16T09:52:22;2.70;;;1.00;;
48211;SDS011;34000;48.772;9.162;2022-10-16T09:54:55;1.83;;;1.10;;
48211;SDS011;34000;48.772;9.162;2022-10-16T09:57:25;4.55;;;0.90;;
48211;SDS011;34000;48.772;9.162;2022-10-16T09:59:53;1.20;;;1.00;;
48211;SDS011;34000;48.772;9.162;2022-10-16T10:02:27;1.30;;;0.80;;
48211;SDS011;34000;48.772;9.162;2022-10-16T10:04:53;2.40;;;0.80;;
48211;SDS011;34000;48.772;9.162;2022-10-16T10:07:21;2.03;;;1.20;;
48211;SDS011;34000;48.772;9.162;2022-10-16T10:10:02;0.88;;;0.80;;
48211;SDS011;34000;48.772;9.162;2022-10-16T10:12:30;0.82;;;0.70;;
48211;SDS011;34000;48.772;9.162;2022-10-16T10:15:04;2.97;;;1.55;;
48211;SDS011;34000;48.772;9.162;2022-10-16T10:17:45;0.75;;;0.68;;
48211;SDS011;34000;48.772;9.162;2022-10-16T10:20:26;2.40;;;0.98;;
48211;SDS011;34000;48.772;9.162;2022-10-16T10:22:53;1.85;;;0.93;;
48211;SDS011;34000;48.772;9.162;2022-10-16T10:33:45;1.65;;;0.73;;
48211;SDS011;34000;48.772;9.162;2022-10-16T10:39:01;0.90;;;0.75;;
48211;SDS011;34000;48.772;9.162;2022-10-16T10:50:03;1.77;;;0.80;;
48211;SDS011;34000;48.772;9.162;2022-10-16T10:52:54;2.00;;;1.15;;
48211;SDS011;34000;48.772;9.162;2022-10-16T11:03:03;3.28;;;0.90;;
48211;SDS011;34000;48.772;9.162;2022-10-16T11:08:25;12.65;;;0.95;;
48211;SDS011;34000;48.772;9.162;2022-10-16T11:11:21;3.55;;;1.00;;
48211;SDS011;34000;48.772;9.162;2022-10-16T11:16:17;4.00;;;0.90;;
48211;SDS011;34000;48.772;9.162;2022-10-16T11:21:54;3.13;;;1.00;;
48211;SDS011;34000;48.772;9.162;2022-10-16T11:27:17;1.52;;;0.80;;
48211;SDS011;34000;48.772;9.162;2022-10-16T11:29:46;2.47;;;0.90;;
48211;SDS011;34000;48.772;9.162;2022-10-16T11:32:20;3.30;;;0.80;;
48211;SDS011;34000;48.772;9.162;2022-10-16T11:34:56;3.47;;;0.98;;
48211;SDS011;34000;48.772;9.162;2022-10-16T11:37:32;3.90;;;1.00;;
48211;SDS011;34000;48.772;9.162;2022-10-16T11:40:14;3.08;;;1.08;;
48211;SDS011;34000;48.772;9.162;2022-10-16T11:43:13;5.60;;;1.27;;
48211;SDS011;34000;48.772;9.162;2022-10-16T11:45:43;0.90;;;0.90;;
48211;SDS011;34000;48.772;9.162;2022-10-16T11:53:42;0.70;;;0.70;;
48211;SDS011;34000;48.772;9.162;2022-10-16T11:56:26;1.10;;;0.80;;
48211;SDS011;34000;48.772;9.162;2022-10-16T11:59:03;2.90;;;0.90;;
48211;SDS011;34000;48.772;9.162;2022-10-16T12:01:50;1.13;;;0.75;;
48211;SDS011;34000;48.772;9.162;2022-10-16T12:04:33;1.05;;;0.80;;
48211;SDS011;34000;48.772;9.162;2022-10-16T12:07:14;0.60;;;0.60;;
48211;SDS011;34000;48.772;9.162;2022-10-16T12:09:46;0.60;;;0.60;;
48211;SDS011;34000;48.772;9.162;2022-10-16T12:12:25;1.00;;;0.77;;
48211;SDS011;34000;48.772;9.162;2022-10-16T12:15:03;3.40;;;0.82;;
48211;SDS011;34000;48.772;9.162;2022-10-16T12:17:44;0.70;;;0.65;;
48211;SDS011;34000;48.772;9.162;2022-10-16T12:23:20;1.30;;;0.98;;
48211;SDS011;34000;48.772;9.162;2022-10-16T12:25:32;1.23;;;1.00;;
48211;SDS011;34000;48.772;9.162;2022-10-16T12:30:41;1.02;;;0.93;;
48211;SDS011;34000;48.772;9.162;2022-10-16T12:35:45;1.15;;;0.90;;
48211;SDS011;34000;48.772;9.162;2022-10-16T12:40:59;0.80;;;0.73;;
48211;SDS011;34000;48.772;9.162;2022-10-16T12:43:42;1.23;;;0.63;;
48211;SDS011;34000;48.772;9.162;2022-10-16T12:48:39;2.15;;;0.80;;
48211;SDS011;34000;48.772;9.162;2022-10-16T12:53:35;2.47;;;0.80;;
48211;SDS011;34000;48.772;9.162;2022-10-16T12:56:03;0.95;;;0.80;;
48211;SDS011;34000;48.772;9.162;2022-10-16T13:06:17;3.13;;;0.77;;
48211;SDS011;34000;48.772;9.162;2022-10-16T13:17:11;1.58;;;0.98;;
48211;SDS011;34000;48.772;9.162;2022-10-16T13:20:02;0.82;;;0.77;;
48211;SDS011;34000;48.772;9.162;2022-10-16T13:22:56;1.10;;;0.80;;
48211;SDS011;34000;48.772;9.162;2022-10-16T13:28:33;4.03;;;1.35;;
48211;SDS011;34000;48.772;9.162;2022-10-16T13:31:00;2.35;;;0.90;;
48211;SDS011;34000;48.772;9.162;2022-10-16T13:33:37;2.08;;;0.80;;
48211;SDS011;34000;48.772;9.162;2022-10-16T13:36:05;1.60;;;0.90;;
48211;SDS011;34000;48.772;9.162;2022-10-16T13:38:35;1.60;;;0.90;;
48211;SDS011;34000;48.772;9.162;2022-10-16T13:41:05;1.30;;;1.15;;
48211;SDS011;34000;48.772;9.162;2022-10-16T13:43:50;1.85;;;0.88;;
48211;SDS011;34000;48.772;9.162;2022-10-16T13:46:21;0.93;;;0.93;;
48211;SDS011;34000;48.772;9.162;2022-10-16T13:49:01;2.72;;;1.00;;
48211;SDS011;34000;48.772;9.162;2022-10-16T13:51:28;1.58;;;0.82;;
48211;SDS011;34000;48.772;9.162;2022-10-16T13:53:55;2.00;;;1.20;;
48211;SDS011;34000;48.772;9.162;2022-10-16T13:56:23;2.13;;;1.30;;
48211;SDS011;34000;48.772;9.162;2022-10-16T13:58:58;2.45;;;1.30;;
48211;SDS011;34000;48.772;9.162;2022-10-16T14:01:26;2.63;;;1.00;;
48211;SDS011;34000;48.772;9.162;2022-10-16T14:03:59;1.50;;;1.20;;
48211;SDS011;34000;48.772;9.162;2022-10-16T14:06:27;3.25;;;1.20;;
48211;SDS011;34000;48.772;9.162;2022-10-16T14:11:59;1.60;;;1.30;;
48211;SDS011;34000;48.772;9.162;2022-10-16T14:14:29;1.98;;;1.20;;
48211;SDS011;34000;48.772;9.162;2022-10-16T14:17:06;1.73;;;1.17;;
48211;SDS011;34000;48.772;9.162;2022-10-16T14:19:45;1.52;;;1.15;;
48211;SDS011;34000;48.772;9.162;2022-10-16T14:22:57;1.67;;;1.10;;
48211;SDS011;34000;48.772;9.162;2022-10-16T14:28:14;2.22;;;1.17;;
48211;SDS011;34000;48.772;9.162;2022-10-16T14:30:50;5.65;;;1.40;;
48211;SDS011;34000;48.772;9.162;2022-10-16T14:33:24;3.65;;;1.30;;
48211;SDS011;34000;48.772;9.162;2022-10-16T14:38:36;4.65;;;1.15;;
48211;SDS011;34000;48.772;9.162;2022-10-16T14:41:04;3.25;;;1.10;;
48211;SDS011;34000;48.772;9.162;2022-10-16T14:43:32;1.30;;;1.00;;
48211;SDS011;34000;48.772;9.162;2022-10-16T14:46:00;1.40;;;1.00;;
48211;SDS011;34000;48.772;9.162;2022-10-16T14:48:28;1.50;;;1.30;;
48211;SDS011;34000;48.772;9.162;2022-10-16T14:50:55;4.43;;;1.38;;
48211;SDS011;34000;48.772;9.162;2022-10-16T14:53:20;1.30;;;1.15;;
48211;SDS011;34000;48.772;9.162;2022-10-16T14:55:46;1.17;;;0.90;;
48211;SDS011;34000;48.772;9.162;2022-10-16T14:58:14;1.17;;;1.08;;
48211;SDS011;34000;48.772;9.162;2022-10-16T15:03:10;1.75;;;1.20;;
48211;SDS011;34000;48.772;9.162;2022-10-16T15:05:36;1.27;;;1.13;;
48211;SDS011;34000;48.772;9.162;2022-10-16T15:08:02;1.98;;;1.30;;
48211;SDS011;34000;48.772;9.162;2022-10-16T15:10:29;2.60;;;1.00;;
48211;SDS011;34000;48.772;9.162;2022-10-16T15:12:57;1.92;;;1.13;;
48211;SDS011;34000;48.772;9.162;2022-10-16T15:15:25;1.65;;;1.30;;
48211;SDS011;34000;48.772;9.162;2022-10-16T15:17:58;5.25;;;1.63;;
48211;SDS011;34000;48.772;9.162;2022-10-16T15:20:29;1.90;;;1.10;;
48211;SDS011;34000;48.772;9.162;2022-10-16T15:22:58;2.67;;;1.52;;
48211;SDS011;34000;48.772;9.162;2022-10-16T15:25:52;2.45;;;1.90;;
48211;SDS011;34000;48.772;9.162;2022-10-16T15:28:19;3.72;;;1.20;;
48211;SDS011;34000;48.772;9.162;2022-10-16T15:30:46;2.28;;;1.30;;
48211;SDS011;34000;48.772;9.162;2022-10-16T15:33:15;4.43;;;1.60;;
48211;SDS011;34000;48.772;9.162;2022-10-16T15:35:42;2.75;;;1.50;;
48211;SDS011;34000;48.772;9.162;2022-10-16T15:38:12;2.70;;;1.52;;
48211;SDS011;34000;48.772;9.162;2022-10-16T15:40:38;1.83;;;1.42;;
48211;SDS011;34000;48.772;9.162;2022-10-16T15:43:04;2.83;;;1.77;;
48211;SDS011;34000;48.772;9.162;2022-10-16T15:45:30;5.00;;;1.48;;
48211;SDS011;34000;48.772;9.162;2022-10-16T15:47:56;4.13;;;1.67;;
48211;SDS011;34000;48.772;9.162;2022-10-16T15:50:22;2.90;;;2.10;;
48211;SDS011;34000;48.772;9.162;2022-10-16T15:52:49;2.17;;;1.63;;
48211;SDS011;34000;48.772;9.162;2022-10-16T15:55:15;3.42;;;2.22;;
48211;SDS011;34000;48.772;9.162;2022-10-16T15:57:42;4.05;;;2.15;;
48211;SDS011;34000;48.772;9.162;2022-10-16T16:00:12;3.70;;;2.03;;
48211;SDS011;34000;48.772;9.162;2022-10-16T16:02:41;2.20;;;1.67;;
48211;SDS011;34000;48.772;9.162;2022-10-16T16:05:08;2.55;;;1.60;;
48211;SDS011;34000;48.772;9.162;2022-10-16T16:07:36;7.57;;;4.15;;
48211;SDS011;34000;48.772;9.162;2022-10-16T16:10:05;5.55;;;2.17;;
48211;SDS011;34000;48.772;9.162;2022-10-16T16:12:32;2.80;;;2.03;;
48211;SDS011;34000;48.772;9.162;2022-10-16T16:14:58;4.55;;;1.92;;
48211;SDS011;34000;48.772;9.162;2022-10-16T16:17:24;3.60;;;2.20;;
48211;SDS011;34000;48.772;9.162;2022-10-16T16:19:50;4.18;;;2.15;;
48211;SDS011;34000;48.772;9.162;2022-10-16T16:22:16;12.02;;;2.20;;
48211;SDS011;34000;48.772;9.162;2022-10-16T16:24:42;4.20;;;1.75;;
48211;SDS011;34000;48.772;9.162;2022-10-16T16:27:08;5.40;;;1.88;;
48211;SDS011;34000;48.772;9.162;2022-10-16T16:29:34;7.35;;;2.17;;
48211;SDS011;34000;48.772;9.162;2022-10-16T16:32:00;6.78;;;2.25;;
48211;SDS011;34000;48.772;9.162;2022-10-16T16:34:26;4.15;;;1.70;;
48211;SDS011;34000;48.772;9.162;2022-10-16T16:36:54;4.22;;;1.67;;
48211;SDS011;34000;48.772;9.162;2022-10-16T16:39:20;7.05;;;2.08;;
48211;SDS011;34000;48.772;9.162;2022-10-16T16:41:46;10.15;;;1.95;;
48211;SDS011;34000;48.772;9.162;2022-10-16T16:44:12;11.90;;;2.88;;
48211;SDS011;34000;48.772;9.162;2022-10-16T16:46:38;7.05;;;2.33;;
48211;SDS011;34000;48.772;9.162;2022-10-16T16:49:04;5.05;;;1.75;;
48211;SDS011;34000;48.772;9.162;2022-10-16T16:51:32;3.05;;;1.60;;
48211;SDS011;34000;48.772;9.162;2022-10-16T16:53:58;4.57;;;1.83;;
48211;SDS011;34000;48.772;9.162;2022-10-16T16:56:24;5.13;;;2.17;;
48211;SDS011;34000;48.772;9.162;2022-10-16T16:58:51;1.98;;;1.50;;
48211;SDS011;34000;48.772;9.162;2022-10-16T17:01:18;5.32;;;2.08;;
48211;SDS011;34000;48.772;9.162;2022-10-16T17:03:45;7.82;;;2.53;;
48211;SDS011;34000;48.772;9.162;2022-10-16T17:06:14;8.18;;;1.90;;